Terminal Aerodrome Forecast
Issued by NWS

Home | Current Version | Previous Version | Text Only | Print | Product List | Glossary Off
Versions: 1 2 3 4 5 6 7 8 9 10 11 12 13 14 15 16 17 18 19 20 21 22 23 24

000
FTUS43 KABR 192010 AAA
TAFPIR
TAF AMD
KPIR 192010Z 1920/2018 17017G23KT P6SM SCT150
     FM192100 22014KT P6SM BKN200
     FM192300 29014KT P6SM SCT200
     FM201000 28007KT P6SM FEW250=

USA.gov is the U.S. government's official web portal to all federal, state and local government web resources and services.